Terminal Aerodrome Forecast
Issued by NWS

Home | Current Version | Previous Version | Text Only | Print | Product List | Glossary On
Versions: 1 2 3 4 5 6 7 8 9 10 11 12 13 14 15 16 17 18 19 20 21 22 23 24 25 26 27 28 29 30 31 32 33 34 35 36 37 38 39 40 41 42 43 44 45
000
FTUS45 KBOI 221234 AAA
TAFTWF
TAF AMD
KTWF 221234Z 2213/2312 12012KT P6SM -RA FEW040 OVC080
     FM222000 29010KT P6SM VCTS SCT050CB OVC100
      TEMPO 2220/2224 5SM TSRA BKN050CB
     FM230000 30010KT P6SM VCTS SCT040CB OVC080 PROB30 2300/2304 5SM
      TSRA OVC040CB
     FM230600 21010KT P6SM -SHRA SCT040 BKN060=

USA.gov is the U.S. government's official web portal to all federal, state and local government web resources and services.